Time;durP1;ratioP1;P1;durP2;ratioP2;P2;SDS_P1;SDS_P2;PMS_P1;PMS_P2;Temp;Humidity;BMP_temperature;BMP_pressure;BME280_temperature;BME280_humidity;BME280_pressure;Samples;Min_cycle;Max_cycle;Signal;HPM_P1;HPM_P2
2023/11/13 00:01:43;;;;;;;;;;;;;;;4.75;100.00;100668.69;5039408;28;19924;-42
2023/11/13 00:04:08;;;;;;;;;;;;;;;4.75;100.00;100658.03;5052170;28;20420;-41
2023/11/13 00:06:33;;;;;;;;;;;;;;;4.72;100.00;100647.66;5039081;28;19917;-40
2023/11/13 00:08:59;;;;;;;;;;;;;;;4.70;100.00;100639.81;5035883;28;19923;-41
2023/11/13 00:11:24;;;;;;;;;;;;;;;4.66;100.00;100630.44;5035814;28;19959;-41
2023/11/13 00:13:49;;;;;;;;;;;;;;;4.73;100.00;100642.16;5035913;28;20020;-40
2023/11/13 00:16:14;;;;;;;;;;;;;;;4.75;100.00;100652.69;5035495;28;19928;-41
2023/11/13 00:18:40;;;;;;;;;;;;;;;4.79;100.00;100644.25;5046941;28;19917;-40
2023/11/13 00:21:05;;;;;;;;;;;;;;;4.83;100.00;100650.13;5035880;28;19913;-41
2023/11/13 00:23:31;;;;;;;;;;;;;;;4.83;100.00;100658.97;5049919;28;19917;-42
2023/11/13 00:25:57;;;;;;;;;;;;;;;4.80;100.00;100655.75;5039606;28;19921;-40
2023/11/13 00:28:22;;;;;;;;;;;;;;;4.81;100.00;100644.09;5050611;28;19917;-41
2023/11/13 00:30:48;;;;;;;;;;;;;;;4.82;100.00;100633.28;5037552;28;19917;-41
2023/11/13 00:33:13;;;;;;;;;;;;;;;4.83;100.00;100634.13;5045934;28;19923;-40
2023/11/13 00:35:38;;;;;;;;;;;;;;;4.80;100.00;100629.94;5051635;28;19917;-41
2023/11/13 00:38:03;;;;;;;;;;;;;;;4.78;100.00;100628.41;5048552;28;19924;-40
2023/11/13 00:40:31;;;;;;;;;;;;;;;4.78;100.00;100617.75;5054371;28;19924;-41
2023/11/13 00:42:56;;;;;;;;;;;;;;;4.76;100.00;100615.19;5054692;28;19928;-40
2023/11/13 00:45:21;;;;;;;;;;;;;;;4.74;100.00;100611.00;5038641;28;20005;-41
2023/11/13 00:47:47;;;;;;;;;;;;;;;4.73;100.00;100606.69;5035923;28;19917;-41
2023/11/13 00:50:12;;;;;;;;;;;;;;;4.71;100.00;100600.66;5054708;28;19919;-41
2023/11/13 00:52:39;;;;;;;;;;;;;;;4.74;100.00;100609.22;5039932;28;19962;-41
2023/11/13 00:55:04;;;;;;;;;;;;;;;4.76;100.00;100604.53;5048955;28;19995;-41
2023/11/13 00:57:29;;;;;;;;;;;;;;;4.79;100.00;100606.06;5054521;28;20012;-41
2023/11/13 00:59:55;;;;;;;;;;;;;;;4.78;100.00;100591.06;5038795;28;19917;-41
2023/11/13 01:02:22;;;;;;;;;;;;;;;4.82;100.00;100597.78;5036399;28;20491;-41
2023/11/13 01:04:47;;;;;;;;;;;;;;;4.80;100.00;100597.94;5045454;28;20060;-41
2023/11/13 01:07:16;;;;;;;;;;;;;;;4.81;100.00;100596.09;5044910;28;20343;-41
2023/11/13 01:09:42;;;;;;;;;;;;;;;4.81;100.00;100599.59;5034673;28;20040;-41
2023/11/13 01:12:08;;;;;;;;;;;;;;;4.84;100.00;100596.66;5034806;28;20360;-41
2023/11/13 01:14:34;;;;;;;;;;;;;;;4.87;100.00;100600.84;5034451;28;19967;-40
2023/11/13 01:16:59;;;;;;;;;;;;;;;4.88;100.00;100610.50;5050515;28;19950;-41
2023/11/13 01:19:24;;;;;;;;;;;;;;;4.93;100.00;100610.06;5053432;28;19924;-41
2023/11/13 01:21:50;;;;;;;;;;;;;;;4.96;100.00;100618.59;5054228;28;19916;-41
2023/11/13 01:24:15;;;;;;;;;;;;;;;5.00;100.00;100613.78;5044553;28;20416;-40
2023/11/13 01:26:40;;;;;;;;;;;;;;;5.11;100.00;100607.38;5053230;28;19973;-41
2023/11/13 01:29:05;;;;;;;;;;;;;;;5.17;100.00;100604.13;5039333;28;19939;-41
2023/11/13 01:31:31;;;;;;;;;;;;;;;5.18;100.00;100600.47;5034930;28;19920;-41
2023/11/13 01:33:56;;;;;;;;;;;;;;;5.20;100.00;100619.81;5033436;28;19939;-41
2023/11/13 01:36:22;;;;;;;;;;;;;;;5.20;100.00;100615.31;5049156;28;20294;-41
2023/11/13 01:38:47;;;;;;;;;;;;;;;5.23;100.00;100614.19;5048494;28;19982;-41
2023/11/13 01:41:12;;;;;;;;;;;;;;;5.26;100.00;100613.88;5053052;28;20325;-41
2023/11/13 01:43:37;;;;;;;;;;;;;;;5.28;100.00;100606.56;5045427;28;19960;-41
2023/11/13 01:46:02;;;;;;;;;;;;;;;5.31;100.00;100614.25;5034119;28;19913;-40
2023/11/13 01:48:28;;;;;;;;;;;;;;;5.33;100.00;100612.28;5016544;28;19917;-41
2023/11/13 01:50:53;;;;;;;;;;;;;;;5.30;100.00;100593.91;5039314;28;19913;-41
2023/11/13 01:53:23;;;;;;;;;;;;;;;5.33;100.00;100584.75;5053227;28;19970;-41
2023/11/13 01:55:48;;;;;;;;;;;;;;;5.36;100.00;100569.25;5043677;28;20339;-40
2023/11/13 01:58:13;;;;;;;;;;;;;;;5.35;100.00;100570.28;5052303;28;19952;-41
2023/11/13 02:00:39;;;;;;;;;;;;;;;5.38;100.00;100567.28;5024189;28;20007;-41
2023/11/13 02:03:05;;;;;;;;;;;;;;;5.40;100.00;100561.81;5049348;28;19948;-41
2023/11/13 02:05:30;;;;;;;;;;;;;;;5.37;100.00;100562.97;5035555;28;19924;-41
2023/11/13 02:07:56;;;;;;;;;;;;;;;5.37;100.00;100562.97;5053084;28;19988;-41
2023/11/13 02:10:21;;;;;;;;;;;;;;;5.39;100.00;100566.28;5048407;28;20007;-41
2023/11/13 02:12:46;;;;;;;;;;;;;;;5.42;100.00;100560.63;5052381;28;19948;-41
2023/11/13 02:15:11;;;;;;;;;;;;;;;5.47;100.00;100562.84;5034333;28;19916;-39
2023/11/13 02:17:37;;;;;;;;;;;;;;;5.49;100.00;100544.84;5033166;28;19917;-41
2023/11/13 02:20:02;;;;;;;;;;;;;;;5.49;100.00;100539.50;5032825;28;19917;-40
2023/11/13 02:22:27;;;;;;;;;;;;;;;5.57;100.00;100536.06;5032685;28;19956;-40
2023/11/13 02:24:52;;;;;;;;;;;;;;;5.67;100.00;100521.59;5032678;28;19916;-41
2023/11/13 02:27:18;;;;;;;;;;;;;;;5.73;100.00;100512.13;5032594;28;19913;-41
2023/11/13 02:29:43;;;;;;;;;;;;;;;5.76;100.00;100508.28;5032004;28;19967;-40
2023/11/13 02:32:09;;;;;;;;;;;;;;;5.77;100.00;100510.81;5032710;28;20367;-40
2023/11/13 02:34:34;;;;;;;;;;;;;;;5.71;100.00;100511.44;5032382;28;19917;-38
2023/11/13 02:36:59;;;;;;;;;;;;;;;5.71;100.00;100511.44;5019775;28;20384;-40
2023/11/13 02:39:24;;;;;;;;;;;;;;;5.72;100.00;100521.13;5032272;28;20275;-40
2023/11/13 02:41:51;;;;;;;;;;;;;;;5.68;100.00;100517.09;5032709;28;20356;-40
2023/11/13 02:44:16;;;;;;;;;;;;;;;5.75;100.00;100530.66;5032352;28;20319;-41
2023/11/13 02:46:42;;;;;;;;;;;;;;;5.75;100.00;100528.81;5032409;28;19917;-40
2023/11/13 02:49:07;;;;;;;;;;;;;;;5.67;100.00;100534.13;5031346;28;19917;-40
2023/11/13 02:51:33;;;;;;;;;;;;;;;5.68;100.00;100541.13;5021507;28;19917;-40
2023/11/13 02:53:58;;;;;;;;;;;;;;;5.65;100.00;100544.94;5032265;28;19918;-41
2023/11/13 02:56:23;;;;;;;;;;;;;;;5.67;100.00;100542.13;5032144;28;19917;-40
2023/11/13 02:58:48;;;;;;;;;;;;;;;5.69;100.00;100550.81;5032808;28;20074;-41
2023/11/13 03:01:14;;;;;;;;;;;;;;;5.71;100.00;100559.50;5032220;28;19916;-41
2023/11/13 03:03:39;;;;;;;;;;;;;;;5.74;100.00;100569.88;5048720;28;20344;-41
2023/11/13 03:06:05;;;;;;;;;;;;;;;5.78;100.00;100565.06;5032671;28;20003;-40
2023/11/13 03:08:30;;;;;;;;;;;;;;;5.82;100.00;100567.25;5022894;28;20398;-40
2023/11/13 03:10:55;;;;;;;;;;;;;;;5.86;100.00;100557.94;5031688;28;19996;-40
2023/11/13 03:13:21;;;;;;;;;;;;;;;5.90;100.00;100553.94;5022330;28;20008;-40
2023/11/13 03:15:47;;;;;;;;;;;;;;;5.91;100.00;100546.78;5032906;28;19917;-40
2023/11/13 03:18:14;;;;;;;;;;;;;;;5.98;100.00;100549.66;5051856;28;19923;-41
2023/11/13 03:20:40;;;;;;;;;;;;;;;5.99;100.00;100535.31;5052215;28;20333;-41
2023/11/13 03:23:05;;;;;;;;;;;;;;;5.96;100.00;100539.16;5052233;28;19917;-40
2023/11/13 03:25:30;;;;;;;;;;;;;;;6.02;100.00;100530.50;5049146;28;19995;-40
2023/11/13 03:27:55;;;;;;;;;;;;;;;6.07;100.00;100538.88;5050236;28;20007;-41
2023/11/13 03:30:21;;;;;;;;;;;;;;;6.07;100.00;100540.72;5052469;28;20324;-41
2023/11/13 03:32:46;;;;;;;;;;;;;;;6.08;100.00;100540.56;5034469;28;19939;-40
2023/11/13 03:35:16;;;;;;;;;;;;;;;6.07;100.00;100546.03;5052207;28;20004;-41
2023/11/13 03:37:41;;;;;;;;;;;;;;;6.10;100.00;100543.06;5052618;28;19969;-39
2023/11/13 03:40:07;;;;;;;;;;;;;;;6.10;100.00;100543.06;5051632;28;19921;-40
2023/11/13 03:42:32;;;;;;;;;;;;;;;6.10;100.00;100533.19;5052146;28;20003;-41
2023/11/13 03:44:57;;;;;;;;;;;;;;;6.17;100.00;100528.06;5041994;28;19920;-39
2023/11/13 03:47:22;;;;;;;;;;;;;;;6.16;100.00;100526.38;5032490;28;20063;-41
2023/11/13 03:49:48;;;;;;;;;;;;;;;6.17;100.00;100522.72;5032496;28;19917;-40
2023/11/13 03:52:13;;;;;;;;;;;;;;;6.13;100.00;100511.53;5032648;28;19917;-40
2023/11/13 03:54:39;;;;;;;;;;;;;;;6.14;100.00;100493.66;5039343;28;19921;-39
2023/11/13 03:57:04;;;;;;;;;;;;;;;6.13;100.00;100486.63;5033815;28;19924;-41
2023/11/13 03:59:31;;;;;;;;;;;;;;;6.12;100.00;100482.28;5054374;28;19917;-41
2023/11/13 04:01:56;;;;;;;;;;;;;;;6.14;100.00;100469.59;5052095;28;19924;-40
2023/11/13 04:04:21;;;;;;;;;;;;;;;6.19;100.00;100461.06;5043047;28;19916;-40
2023/11/13 04:06:47;;;;;;;;;;;;;;;6.19;100.00;100445.91;5053829;28;19943;-38
2023/11/13 04:09:12;;;;;;;;;;;;;;;6.20;100.00;100450.25;5040294;28;19917;-40
2023/11/13 04:11:38;;;;;;;;;;;;;;;6.27;100.00;100448.59;5037482;28;19917;-40
2023/11/13 04:14:03;;;;;;;;;;;;;;;6.27;100.00;100443.25;5039844;28;19932;-40
2023/11/13 04:16:29;;;;;;;;;;;;;;;6.30;100.00;100429.56;5037028;28;19917;-40
2023/11/13 04:18:54;;;;;;;;;;;;;;;6.29;100.00;100425.22;5035788;28;19913;-40
2023/11/13 04:21:19;;;;;;;;;;;;;;;6.29;100.00;100414.53;5035807;28;19928;-41
2023/11/13 04:23:45;;;;;;;;;;;;;;;6.33;100.00;100431.91;5035690;28;19921;-40
2023/11/13 04:26:10;;;;;;;;;;;;;;;6.36;100.00;100425.38;5035301;28;19913;-41
2023/11/13 04:28:35;;;;;;;;;;;;;;;6.36;100.00;100426.22;5035199;28;19923;-40
2023/11/13 04:31:02;;;;;;;;;;;;;;;6.35;100.00;100429.91;5035258;28;19929;-39
2023/11/13 04:33:27;;;;;;;;;;;;;;;6.37;100.00;100425.22;5035268;28;19917;-41
2023/11/13 04:35:54;;;;;;;;;;;;;;;6.43;100.00;100430.91;5035037;28;19917;-41
2023/11/13 04:38:19;;;;;;;;;;;;;;;6.44;100.00;100416.53;5035376;28;20000;-41
2023/11/13 04:40:45;;;;;;;;;;;;;;;6.51;100.00;100417.56;5034972;28;19924;-41
2023/11/13 04:43:10;;;;;;;;;;;;;;;6.52;100.00;100412.03;5034868;28;19948;-41
2023/11/13 04:45:35;;;;;;;;;;;;;;;6.56;100.00;100409.88;5034263;28;19924;-41
2023/11/13 04:48:00;;;;;;;;;;;;;;;6.57;100.00;100409.69;5034938;28;19990;-41
2023/11/13 04:50:26;;;;;;;;;;;;;;;6.60;100.00;100405.84;5034809;28;19920;-41
2023/11/13 04:52:51;;;;;;;;;;;;;;;6.63;100.00;100402.84;5034073;28;19917;-40
2023/11/13 04:55:16;;;;;;;;;;;;;;;6.67;100.00;100406.88;5033804;28;20468;-41
2023/11/13 04:57:41;;;;;;;;;;;;;;;6.74;100.00;100407.00;5024757;28;20296;-41
2023/11/13 05:00:09;;;;;;;;;;;;;;;6.73;100.00;100400.84;5033440;28;20267;-41
2023/11/13 05:02:37;;;;;;;;;;;;;;;6.76;100.00;100405.84;5032643;28;19927;-41
2023/11/13 05:05:03;;;;;;;;;;;;;;;6.76;100.00;100411.19;5032648;28;20593;-42
2023/11/13 05:07:29;;;;;;;;;;;;;;;6.77;100.00;100410.22;5032987;28;20039;-41
2023/11/13 05:09:54;;;;;;;;;;;;;;;6.76;100.00;100399.66;5032796;28;19917;-41
2023/11/13 05:12:20;;;;;;;;;;;;;;;6.84;100.00;100399.66;5032781;28;19924;-41
2023/11/13 05:14:45;;;;;;;;;;;;;;;6.88;100.00;100394.81;5033460;28;19920;-41
2023/11/13 05:17:11;;;;;;;;;;;;;;;6.87;100.00;100390.47;5013704;28;19920;-40
2023/11/13 05:19:37;;;;;;;;;;;;;;;6.82;100.00;100388.31;5033197;28;19916;-39
2023/11/13 05:22:02;;;;;;;;;;;;;;;6.82;100.00;100394.50;5032270;28;20051;-40
2023/11/13 05:24:27;;;;;;;;;;;;;;;6.84;100.00;100390.81;5032738;28;19924;-41
2023/11/13 05:26:53;;;;;;;;;;;;;;;6.86;100.00;100391.47;5032328;28;19913;-41
2023/11/13 05:29:19;;;;;;;;;;;;;;;6.82;100.00;100386.47;5032196;28;20012;-41
2023/11/13 05:31:44;;;;;;;;;;;;;;;6.89;100.00;100377.75;5029278;28;20078;-40
2023/11/13 05:34:09;;;;;;;;;;;;;;;6.91;100.00;100383.78;5032469;28;19952;-40
2023/11/13 05:36:35;;;;;;;;;;;;;;;6.91;100.00;100375.75;5032165;28;19956;-41
2023/11/13 05:39:00;;;;;;;;;;;;;;;6.92;100.00;100372.06;5032880;28;19917;-40
2023/11/13 05:41:25;;;;;;;;;;;;;;;6.94;100.00;100364.72;5032856;28;19928;-40
2023/11/13 05:43:54;;;;;;;;;;;;;;;6.98;100.00;100356.19;5032896;28;19916;-41
2023/11/13 05:46:20;;;;;;;;;;;;;;;6.94;100.00;100357.50;5032874;28;19917;-41
2023/11/13 05:48:45;;;;;;;;;;;;;;;6.99;100.00;100357.00;5032926;28;20324;-41
2023/11/13 05:51:12;;;;;;;;;;;;;;;6.97;100.00;100359.00;5014749;28;20370;-41
2023/11/13 05:53:37;;;;;;;;;;;;;;;7.01;100.00;100350.47;5032861;28;20267;-41
2023/11/13 05:56:03;;;;;;;;;;;;;;;7.02;100.00;100352.16;5014490;28;19917;-41
2023/11/13 05:58:29;;;;;;;;;;;;;;;7.06;100.00;100346.44;5032382;28;19924;-42
2023/11/13 06:00:56;;;;;;;;;;;;;;;7.09;100.00;100346.97;5030981;28;19917;-40
2023/11/13 06:03:22;;;;;;;;;;;;;;;7.09;100.00;100338.94;5031951;28;19952;-40
2023/11/13 06:05:47;;;;;;;;;;;;;;;7.13;100.00;100337.56;5037700;28;20298;-40
2023/11/13 06:08:12;;;;;;;;;;;;;;;7.18;100.00;100343.25;5035791;28;20008;-41
2023/11/13 06:10:38;;;;;;;;;;;;;;;7.20;100.00;100349.25;5030726;28;19951;-42
2023/11/13 06:13:04;;;;;;;;;;;;;;;7.22;100.00;100347.25;5033219;28;19928;-42
2023/11/13 06:15:30;;;;;;;;;;;;;;;7.25;100.00;100343.41;5032019;28;19967;-42
2023/11/13 06:17:57;;;;;;;;;;;;;;;7.28;100.00;100342.22;5050751;28;20374;-44
2023/11/13 06:20:22;;;;;;;;;;;;;;;7.22;100.00;100336.53;5050635;28;19959;-44
2023/11/13 06:22:48;;;;;;;;;;;;;;;7.24;100.00;100325.66;5053357;28;20307;-43
2023/11/13 06:25:13;;;;;;;;;;;;;;;7.25;100.00;100325.50;5053006;28;20403;-42
2023/11/13 06:27:38;;;;;;;;;;;;;;;7.30;100.00;100324.16;5052728;28;19928;-43
2023/11/13 06:30:04;;;;;;;;;;;;;;;7.32;100.00;100308.72;5053385;28;20425;-43
2023/11/13 06:32:29;;;;;;;;;;;;;;;7.35;100.00;100316.44;5048929;28;19999;-43
2023/11/13 06:34:55;;;;;;;;;;;;;;;7.40;100.00;100316.75;5047034;28;20272;-43
2023/11/13 06:37:20;;;;;;;;;;;;;;;7.41;100.00;100318.41;5050484;28;19924;-44
2023/11/13 06:39:45;;;;;;;;;;;;;;;7.46;100.00;100316.03;5039332;28;19917;-44
2023/11/13 06:42:10;;;;;;;;;;;;;;;7.48;100.00;100314.03;5045058;28;19917;-44
2023/11/13 06:44:36;;;;;;;;;;;;;;;7.52;100.00;100303.78;5047924;28;19995;-44
2023/11/13 06:47:01;;;;;;;;;;;;;;;7.56;100.00;100303.28;5055988;28;20003;-43
2023/11/13 06:49:26;;;;;;;;;;;;;;;7.62;100.00;100299.88;5051122;28;19970;-43
2023/11/13 06:51:52;;;;;;;;;;;;;;;7.65;100.00;100293.34;5047225;28;19912;-44
2023/11/13 06:54:17;;;;;;;;;;;;;;;7.68;100.00;100293.81;5048467;28;19924;-44
2023/11/13 06:56:42;;;;;;;;;;;;;;;7.72;100.00;100282.78;5051675;28;19975;-44
2023/11/13 06:59:10;;;;;;;;;;;;;;;7.81;100.00;100277.16;5051104;28;20355;-44
2023/11/13 07:01:40;;;;;;;;;;;;;;;7.88;100.00;100271.94;5044623;28;19917;-43
2023/11/13 07:04:06;;;;;;;;;;;;;;;7.90;100.00;100268.06;5042709;28;20359;-44
2023/11/13 07:06:31;;;;;;;;;;;;;;;7.94;100.00;100265.03;5052134;28;19913;-43
2023/11/13 07:08:57;;;;;;;;;;;;;;;7.95;100.00;100272.88;5035280;28;19917;-44
2023/11/13 07:11:22;;;;;;;;;;;;;;;8.02;100.00;100276.50;5031972;28;19991;-44
2023/11/13 07:13:47;;;;;;;;;;;;;;;8.04;100.00;100271.81;5034229;28;20367;-43
2023/11/13 07:16:13;;;;;;;;;;;;;;;8.10;100.00;100267.56;5033907;28;19917;-43
2023/11/13 07:18:39;;;;;;;;;;;;;;;8.18;100.00;100267.50;5032421;28;20434;-44
2023/11/13 07:21:05;;;;;;;;;;;;;;;8.26;100.00;100255.88;5038033;28;19917;-44
2023/11/13 07:23:30;;;;;;;;;;;;;;;8.30;100.00;100254.53;5048577;28;19965;-44
2023/11/13 07:25:56;;;;;;;;;;;;;;;8.39;100.00;100248.09;5037257;28;19917;-44
2023/11/13 07:28:22;;;;;;;;;;;;;;;8.49;100.00;100256.69;5051831;28;19935;-43
2023/11/13 07:30:47;;;;;;;;;;;;;;;8.52;100.00;100248.28;5051542;28;19917;-43
2023/11/13 07:33:13;;;;;;;;;;;;;;;8.57;100.00;100245.06;5052345;28;20272;-44
2023/11/13 07:35:40;;;;;;;;;;;;;;;8.64;100.00;100245.19;5054633;28;19939;-44
2023/11/13 07:38:09;;;;;;;;;;;;;;;8.65;100.00;100234.25;5050609;28;20394;-44
2023/11/13 07:40:35;;;;;;;;;;;;;;;8.74;100.00;100230.47;5053487;28;19996;-43
2023/11/13 07:43:01;;;;;;;;;;;;;;;8.74;100.00;100229.59;5050109;28;20409;-44
2023/11/13 07:45:26;;;;;;;;;;;;;;;8.76;100.00;100223.03;5036627;28;19917;-45
2023/11/13 07:47:51;;;;;;;;;;;;;;;8.84;100.00;100222.13;5055726;28;20282;-44
2023/11/13 07:50:16;;;;;;;;;;;;;;;8.89;100.00;100214.34;5052106;28;20379;-43
2023/11/13 07:52:42;;;;;;;;;;;;;;;8.96;100.00;100206.41;5048594;28;20382;-44
2023/11/13 07:55:11;;;;;;;;;;;;;;;8.96;100.00;100203.72;5054721;28;19921;-45
2023/11/13 07:57:37;;;;;;;;;;;;;;;8.98;100.00;100194.44;5052561;28;19916;-45
2023/11/13 08:00:09;;;;;;;;;;;;;;;9.00;100.00;100187.06;5055126;28;20003;-45
2023/11/13 08:02:40;;;;;;;;;;;;;;;9.09;100.00;100178.88;5048627;28;19917;-44
2023/11/13 08:05:05;;;;;;;;;;;;;;;9.10;100.00;100170.63;5035536;28;19913;-45
2023/11/13 08:07:31;;;;;;;;;;;;;;;9.08;100.00;100163.78;5038698;28;19924;-44
2023/11/13 08:09:57;;;;;;;;;;;;;;;9.06;100.00;100165.81;5041311;28;20374;-44
2023/11/13 08:12:23;;;;;;;;;;;;;;;9.15;100.00;100153.97;5030736;28;19917;-44
2023/11/13 08:14:48;;;;;;;;;;;;;;;9.21;100.00;100134.41;5039287;28;19960;-42
2023/11/13 08:17:13;;;;;;;;;;;;;;;9.32;100.00;100125.00;5053384;28;20364;-43
2023/11/13 08:19:39;;;;;;;;;;;;;;;9.34;100.00;100114.91;5043354;28;20284;-43
2023/11/13 08:22:04;;;;;;;;;;;;;;;9.41;100.00;100113.97;5054794;28;19920;-43
2023/11/13 08:24:30;;;;;;;;;;;;;;;9.47;100.00;100100.78;5055107;28;20275;-43
2023/11/13 08:26:55;;;;;;;;;;;;;;;9.43;100.00;100101.16;5050874;28;19962;-43
2023/11/13 08:29:21;;;;;;;;;;;;;;;9.48;100.00;100099.75;5048438;28;19925;-42
2023/11/13 08:31:46;;;;;;;;;;;;;;;9.52;100.00;100101.03;5054332;28;19917;-42
2023/11/13 08:34:15;;;;;;;;;;;;;;;9.46;100.00;100094.59;5054779;28;20535;-42
2023/11/13 08:36:40;;;;;;;;;;;;;;;9.46;100.00;100105.31;5052582;28;19927;-42
2023/11/13 08:39:05;;;;;;;;;;;;;;;9.43;100.00;100098.47;5053726;28;19920;-42
2023/11/13 08:41:33;;;;;;;;;;;;;;;9.42;100.00;100083.38;5051032;28;19924;-41
2023/11/13 08:43:59;;;;;;;;;;;;;;;9.42;100.00;100077.19;5057720;28;19938;-41
2023/11/13 08:46:25;;;;;;;;;;;;;;;9.38;100.00;100066.00;5056080;28;19920;-41
2023/11/13 08:48:50;;;;;;;;;;;;;;;9.39;100.00;100043.47;5041582;28;20367;-39
2023/11/13 08:51:16;;;;;;;;;;;;;;;9.39;100.00;100050.72;5046612;28;19924;-39
2023/11/13 08:53:46;;;;;;;;;;;;;;;9.37;100.00;100039.31;5054551;28;19943;-40
2023/11/13 08:56:15;;;;;;;;;;;;;;;9.36;100.00;100046.56;5053900;28;19924;-42
2023/11/13 08:58:41;;;;;;;;;;;;;;;9.36;100.00;100035.81;5053417;28;20047;-43
2023/11/13 09:01:07;;;;;;;;;;;;;;;9.36;100.00;100008.97;5053753;28;19995;-47
2023/11/13 09:03:33;;;;;;;;;;;;;;;9.39;100.00;99999.69;5053646;28;20002;-42
2023/11/13 09:05:58;;;;;;;;;;;;;;;9.38;100.00;99996.19;5053099;28;19917;-43
2023/11/13 09:08:24;;;;;;;;;;;;;;;9.37;100.00;99994.53;5033270;28;20007;-40
2023/11/13 09:10:49;;;;;;;;;;;;;;;9.38;100.00;99995.34;5051468;28;19916;-40
2023/11/13 09:13:14;;;;;;;;;;;;;;;9.42;100.00;99991.25;5053327;28;19931;-40
2023/11/13 09:15:40;;;;;;;;;;;;;;;9.41;100.00;99987.72;5035503;28;19917;-41
2023/11/13 09:18:05;;;;;;;;;;;;;;;9.35;100.00;99969.72;5053499;28;20552;-41
2023/11/13 09:20:31;;;;;;;;;;;;;;;9.31;100.00;99963.06;5052137;28;19967;-41
2023/11/13 09:22:57;;;;;;;;;;;;;;;9.32;100.00;99959.38;5053044;28;19920;-41
2023/11/13 09:25:22;;;;;;;;;;;;;;;9.29;100.00;99948.19;5045891;28;20312;-41
2023/11/13 09:27:50;;;;;;;;;;;;;;;9.28;100.00;99938.47;5048978;28;19958;-41
2023/11/13 09:30:18;;;;;;;;;;;;;;;9.20;100.00;99929.53;5050814;28;19917;-43
2023/11/13 09:32:44;;;;;;;;;;;;;;;9.22;100.00;99910.56;5053736;28;19917;-43
2023/11/13 09:35:18;;;;;;;;;;;;;;;9.16;100.00;99917.53;5050435;28;19922;-43
2023/11/13 09:37:43;;;;;;;;;;;;;;;9.18;100.00;99914.66;5053724;28;19952;-43
2023/11/13 09:40:13;;;;;;;;;;;;;;;9.15;100.00;99929.28;5031941;28;20359;-43
2023/11/13 09:42:40;;;;;;;;;;;;;;;9.18;100.00;99909.28;5035134;28;19917;-43
2023/11/13 09:45:05;;;;;;;;;;;;;;;9.12;100.00;99894.78;5035735;28;19962;-45
2023/11/13 09:47:31;;;;;;;;;;;;;;;9.11;100.00;99886.91;5047140;28;19917;-43
2023/11/13 09:50:02;;;;;;;;;;;;;;;9.13;100.00;99884.88;5033953;28;19923;-43
2023/11/13 09:52:27;;;;;;;;;;;;;;;9.09;100.00;99883.63;5053043;28;19928;-44
2023/11/13 09:54:54;;;;;;;;;;;;;;;9.10;100.00;99875.34;5035078;28;20373;-43
2023/11/13 09:57:20;;;;;;;;;;;;;;;9.08;100.00;99869.34;5053595;28;19955;-44
2023/11/13 09:59:48;;;;;;;;;;;;;;;9.13;100.00;99879.50;5035602;28;20011;-43
2023/11/13 10:02:14;;;;;;;;;;;;;;;9.12;100.00;99873.31;5036811;28;20356;-43
2023/11/13 10:04:39;;;;;;;;;;;;;;;9.14;100.00;99863.22;5032097;28;20011;-43
2023/11/13 10:07:04;;;;;;;;;;;;;;;9.18;100.00;99860.94;5028036;28;19951;-43
2023/11/13 10:09:30;;;;;;;;;;;;;;;9.19;100.00;99841.16;5030550;28;20565;-44
2023/11/13 10:11:59;;;;;;;;;;;;;;;9.22;100.00;99822.78;5052445;28;19917;-44
2023/11/13 10:14:25;;;;;;;;;;;;;;;9.26;100.00;99811.63;5035359;28;19921;-43
2023/11/13 10:16:57;;;;;;;;;;;;;;;9.28;100.00;99802.34;5052021;28;20007;-43
2023/11/13 10:19:23;;;;;;;;;;;;;;;9.28;100.00;99780.88;5047918;28;20438;-44
2023/11/13 10:21:51;;;;;;;;;;;;;;;9.30;100.00;99797.63;5039919;28;20338;-44
2023/11/13 10:24:21;;;;;;;;;;;;;;;9.29;100.00;99793.25;5033660;28;20004;-43
2023/11/13 10:26:55;;;;;;;;;;;;;;;9.34;100.00;99785.44;5048961;28;19928;-43
2023/11/13 10:29:27;;;;;;;;;;;;;;;9.38;100.00;99770.59;5052823;28;20286;-43
2023/11/13 10:31:55;;;;;;;;;;;;;;;9.44;100.00;99752.84;5045429;28;19920;-43
2023/11/13 10:34:20;;;;;;;;;;;;;;;9.45;100.00;99766.09;5047869;28;19920;-43
2023/11/13 10:37:04;;;;;;;;;;;;;;;9.50;100.00;99767.34;5051720;28;19913;-41
2023/11/13 10:39:36;;;;;;;;;;;;;;;9.49;100.00;99763.00;5040589;28;19960;-41
2023/11/13 10:42:03;;;;;;;;;;;;;;;9.50;100.00;99748.53;5051885;28;20612;-42
2023/11/13 10:44:30;;;;;;;;;;;;;;;9.56;100.00;99745.06;5052944;28;19917;-43
2023/11/13 10:46:55;;;;;;;;;;;;;;;9.62;100.00;99731.63;5051987;28;19917;-42
2023/11/13 10:49:20;;;;;;;;;;;;;;;9.70;100.00;99709.13;5053167;28;19913;-43
2023/11/13 10:51:50;;;;;;;;;;;;;;;9.80;100.00;99698.81;5028674;28;19955;-43
2023/11/13 10:54:15;;;;;;;;;;;;;;;9.83;100.00;99701.06;5018219;28;19913;-44
2023/11/13 10:56:44;;;;;;;;;;;;;;;9.94;100.00;99686.19;5034586;28;19994;-44
2023/11/13 10:59:10;;;;;;;;;;;;;;;10.03;100.00;99678.75;5035065;28;19912;-45
2023/11/13 11:01:35;;;;;;;;;;;;;;;10.10;100.00;99660.75;5050474;28;20375;-45
2023/11/13 11:04:04;;;;;;;;;;;;;;;10.18;100.00;99667.78;5051958;28;19917;-44
2023/11/13 11:06:32;;;;;;;;;;;;;;;10.29;100.00;99649.22;5046583;28;19917;-44
2023/11/13 11:08:58;;;;;;;;;;;;;;;10.47;100.00;99632.41;5038412;28;19917;-44
2023/11/13 11:11:24;;;;;;;;;;;;;;;10.55;100.00;99629.47;5038220;28;20283;-43
2023/11/13 11:13:54;;;;;;;;;;;;;;;10.63;100.00;99627.59;5031705;28;19916;-42
2023/11/13 11:16:27;;;;;;;;;;;;;;;10.71;100.00;99621.97;5036208;28;19917;-43
2023/11/13 11:18:56;;;;;;;;;;;;;;;10.80;100.00;99617.19;5037146;28;19912;-41
2023/11/13 11:21:36;;;;;;;;;;;;;;;10.88;100.00;99614.25;5055945;28;19924;-41
2023/11/13 11:24:11;;;;;;;;;;;;;;;10.94;100.00;99619.59;5022140;28;19957;-40
2023/11/13 11:26:49;;;;;;;;;;;;;;;11.08;100.00;99606.88;5038094;28;20035;-38
2023/11/13 11:29:44;;;;;;;;;;;;;;;11.28;100.00;99603.28;5056409;28;19920;-40
2023/11/13 11:32:15;;;;;;;;;;;;;;;11.49;100.00;99605.63;5039688;28;19916;-40
2023/11/13 11:34:42;;;;;;;;;;;;;;;11.56;100.00;99592.09;5043880;28;19917;-38
2023/11/13 11:37:12;;;;;;;;;;;;;;;11.55;100.00;99593.94;5039608;28;19917;-38
2023/11/13 11:39:47;;;;;;;;;;;;;;;11.67;100.00;99598.66;5055466;28;20394;-40
2023/11/13 11:42:16;;;;;;;;;;;;;;;11.75;100.00;99582.22;5054793;28;20339;-40
2023/11/13 11:44:53;;;;;;;;;;;;;;;11.81;100.00;99559.75;5055424;28;19952;-41
2023/11/13 11:47:25;;;;;;;;;;;;;;;11.91;100.00;99565.50;5064903;28;19946;-41
2023/11/13 11:49:51;;;;;;;;;;;;;;;11.92;100.00;99582.50;5076116;28;19918;-42
2023/11/13 11:52:17;;;;;;;;;;;;;;;11.96;100.00;99589.94;5057868;28;20010;-43
2023/11/13 11:54:43;;;;;;;;;;;;;;;12.05;100.00;99585.88;5058402;28;19912;-42
2023/11/13 11:57:08;;;;;;;;;;;;;;;12.12;100.00;99560.75;5075743;28;19916;-42
2023/11/13 11:59:34;;;;;;;;;;;;;;;12.18;100.00;99582.22;5076010;28;19919;-43
2023/11/13 12:02:02;;;;;;;;;;;;;;;12.27;100.00;99574.69;5057911;28;19916;-42
2023/11/13 12:04:27;;;;;;;;;;;;;;;12.30;100.00;99585.03;5058468;28;20290;-42
2023/11/13 12:06:52;;;;;;;;;;;;;;;12.38;100.00;99583.91;5076129;28;19912;-42
2023/11/13 12:09:18;;;;;;;;;;;;;;;12.44;100.00;99578.41;5075635;28;19970;-42
2023/11/13 12:11:45;;;;;;;;;;;;;;;12.51;100.00;99565.69;5075526;28;19913;-41
2023/11/13 12:14:10;;;;;;;;;;;;;;;12.59;100.00;99561.03;5075648;28;19925;-42
2023/11/13 12:16:35;;;;;;;;;;;;;;;12.61;100.00;99559.75;5071579;28;19920;-42
2023/11/13 12:19:01;;;;;;;;;;;;;;;12.69;100.00;99564.00;5054906;28;20363;-42
2023/11/13 12:21:26;;;;;;;;;;;;;;;12.73;100.00;99554.41;5055157;28;20547;-43
2023/11/13 12:23:52;;;;;;;;;;;;;;;12.77;100.00;99577.22;5054026;28;20335;-44
2023/11/13 12:26:17;;;;;;;;;;;;;;;12.86;100.00;99567.72;5055429;28;19928;-44
2023/11/13 12:28:43;;;;;;;;;;;;;;;12.93;100.00;99544.19;5055263;28;20007;-44
2023/11/13 12:31:15;;;;;;;;;;;;;;;12.98;100.00;99561.56;5055395;28;19913;-42
2023/11/13 12:33:41;;;;;;;;;;;;;;;13.06;100.00;99545.03;5054874;28;19999;-42